createdAt,value
2018-11-22T00:02:19.097Z,101964.21
2018-11-22T00:04:50.356Z,101963.34
2018-11-22T00:07:18.837Z,101966.35
2018-11-22T00:09:50.032Z,101965.18
2018-11-22T00:12:21.304Z,101965.99
2018-11-22T00:14:49.737Z,101958.70
2018-11-22T00:17:18.132Z,101969.83
2018-11-22T00:19:49.435Z,101966.89
2018-11-22T00:22:18.663Z,101969.45
2018-11-22T00:24:50.333Z,101964.31
2018-11-22T00:27:21.588Z,101969.47
2018-11-22T00:29:53.065Z,101971.17
2018-11-22T00:32:24.420Z,101965.14
2018-11-22T00:34:56.153Z,101970.40
2018-11-22T00:37:24.776Z,101966.11
2018-11-22T00:39:56.335Z,101966.66
2018-11-22T00:42:27.560Z,101974.60
2018-11-22T00:44:56.002Z,101976.20
2018-11-22T00:47:24.467Z,101965.92
2018-11-22T00:49:52.933Z,101964.56
2018-11-22T00:52:24.348Z,101959.98
2018-11-22T00:54:55.865Z,101967.21
2018-11-22T00:57:27.353Z,101968.06
2018-11-22T00:59:59.009Z,101969.34
2018-11-22T01:02:27.696Z,101969.54
2018-11-22T01:04:56.152Z,101972.09
2018-11-22T01:07:27.793Z,101977.11
2018-11-22T01:09:59.000Z,101977.05
2018-11-22T01:12:27.439Z,101972.45
2018-11-22T01:14:58.919Z,101972.34
2018-11-22T01:17:30.166Z,101975.41
2018-11-22T01:20:01.866Z,101975.74
2018-11-22T01:22:33.309Z,101976.92
2018-11-22T01:25:01.739Z,101965.80
2018-11-22T01:27:30.161Z,101967.20
2018-11-22T01:29:58.600Z,101974.53
2018-11-22T01:32:27.955Z,101966.04
2018-11-22T01:34:56.390Z,101965.69
2018-11-22T01:37:25.049Z,101961.81
2018-11-22T01:39:57.117Z,101963.03
2018-11-22T01:42:28.606Z,101963.84
2018-11-22T01:44:59.993Z,101955.65
2018-11-22T01:47:31.279Z,101961.94
2018-11-22T01:50:02.785Z,101962.92
2018-11-22T01:52:34.219Z,101962.48
2018-11-22T01:55:06.794Z,101964.56
2018-11-22T01:57:38.206Z,101970.62
2018-11-22T02:00:16.891Z,101963.91
2018-11-22T02:02:45.960Z,101973.74
2018-11-22T02:05:21.288Z,101957.86
2018-11-22T02:07:52.837Z,101954.12
2018-11-22T02:10:22.160Z,101962.98
2018-11-22T02:12:53.673Z,101951.86
2018-11-22T02:15:23.726Z,101957.90
2018-11-22T02:17:52.139Z,101956.70
2018-11-22T02:20:24.452Z,101951.02
2018-11-22T02:22:53.244Z,101957.00
2018-11-22T02:25:23.416Z,101949.28
2018-11-22T02:27:54.754Z,101954.84
2018-11-22T02:30:24.585Z,101958.65
2018-11-22T02:32:54.701Z,101950.26
2018-11-22T02:35:23.432Z,101951.12
2018-11-22T02:37:51.846Z,101952.28
2018-11-22T02:40:21.223Z,101958.69
2018-11-22T02:42:50.587Z,101963.84
2018-11-22T02:45:20.600Z,101959.86
2018-11-22T02:47:49.038Z,101958.95
2018-11-22T02:50:21.543Z,101963.34
2018-11-22T02:52:50.487Z,101963.78
2018-11-22T02:55:18.956Z,101962.92
2018-11-22T02:57:49.174Z,101966.42
2018-11-22T03:00:44.965Z,101956.25
2018-11-22T03:03:17.090Z,101961.70
2018-11-22T03:05:48.058Z,101962.56
2018-11-22T03:08:19.440Z,101962.56
2018-11-22T03:10:50.990Z,101964.64
2018-11-22T03:13:20.293Z,101966.40
2018-11-22T03:15:51.917Z,101962.19
2018-11-22T03:18:20.357Z,101962.13
2018-11-22T03:20:51.675Z,101957.05
2018-11-22T03:23:23.755Z,101965.91
2018-11-22T03:25:54.984Z,101959.00
2018-11-22T03:28:26.302Z,101964.20
2018-11-22T03:30:57.839Z,101959.92
2018-11-22T03:33:29.719Z,101965.06
2018-11-22T03:36:00.955Z,101956.38
2018-11-22T03:38:32.567Z,101961.63
2018-11-22T03:41:04.016Z,101957.53
2018-11-22T03:43:32.430Z,101957.17
2018-11-22T03:46:03.656Z,101954.92
2018-11-22T03:48:36.277Z,101954.97
2018-11-22T03:51:07.806Z,101957.50
2018-11-22T03:53:36.249Z,101961.27
2018-11-22T03:56:04.942Z,101953.63
2018-11-22T03:58:33.380Z,101960.47
2018-11-22T04:01:04.855Z,101956.50
2018-11-22T04:03:36.438Z,101955.22
2018-11-22T04:06:08.132Z,101959.55
2018-11-22T04:08:36.561Z,101953.80
2018-11-22T04:11:07.913Z,101962.02
2018-11-22T04:13:39.152Z,101959.13
2018-11-22T04:16:10.575Z,101945.00
2018-11-22T04:18:38.984Z,101950.62
2018-11-22T04:21:10.485Z,101944.16
2018-11-22T04:23:38.908Z,101949.66
2018-11-22T04:26:07.443Z,101951.73
2018-11-22T04:28:35.933Z,101953.98
2018-11-22T04:31:04.394Z,101943.73
2018-11-22T04:33:32.823Z,101950.39
2018-11-22T04:36:02.072Z,101951.02
2018-11-22T04:38:30.494Z,101942.82
2018-11-22T04:40:58.942Z,101946.00
2018-11-22T04:43:27.395Z,101947.77
2018-11-22T04:45:58.019Z,101944.77
2018-11-22T04:48:26.483Z,101946.41
2018-11-22T04:50:54.938Z,101948.02
2018-11-22T04:53:23.433Z,101952.70
2018-11-22T04:55:54.507Z,101951.44
2018-11-22T04:58:25.729Z,101954.05
2018-11-22T05:00:54.133Z,101953.22
2018-11-22T05:03:26.062Z,101955.72
2018-11-22T05:05:57.402Z,101948.99
2018-11-22T05:08:28.642Z,101958.76
2018-11-22T05:11:00.048Z,101956.63
2018-11-22T05:13:31.562Z,101964.03
2018-11-22T05:16:03.163Z,101954.91
2018-11-22T05:18:31.562Z,101960.53
2018-11-22T05:20:59.947Z,101961.70
2018-11-22T05:23:31.243Z,101962.13
2018-11-22T05:25:59.651Z,101958.69
2018-11-22T05:28:28.070Z,101960.42
2018-11-22T05:31:00.135Z,101970.25
2018-11-22T05:33:28.594Z,101960.06
2018-11-22T05:35:56.988Z,101964.71
2018-11-22T05:38:28.506Z,101966.29
2018-11-22T05:41:00.123Z,101966.90
2018-11-22T05:43:28.576Z,101972.41
2018-11-22T05:45:59.754Z,101974.55
2018-11-22T05:48:31.089Z,101973.63
2018-11-22T05:50:59.528Z,101970.81
2018-11-22T05:53:28.125Z,101976.69
2018-11-22T05:55:56.536Z,101968.19
2018-11-22T05:58:28.068Z,101970.88
2018-11-22T06:00:56.469Z,101966.89
2018-11-22T06:03:27.762Z,101971.97
2018-11-22T06:05:56.160Z,101971.12
2018-11-22T06:08:27.631Z,101976.27
2018-11-22T06:10:56.291Z,101971.48
2018-11-22T06:13:24.700Z,101975.25
2018-11-22T06:15:53.157Z,101972.22
2018-11-22T06:18:21.635Z,101975.92
2018-11-22T06:20:50.120Z,101981.26
2018-11-22T06:23:18.513Z,101979.47
2018-11-22T06:25:49.571Z,101981.55
2018-11-22T06:28:21.048Z,101979.03
2018-11-22T06:30:49.562Z,101983.27
2018-11-22T06:33:18.109Z,101985.41
2018-11-22T06:35:49.204Z,101974.72
2018-11-22T06:38:20.134Z,101979.91
2018-11-22T06:40:51.417Z,101988.53
2018-11-22T06:43:19.821Z,101986.94
2018-11-22T06:45:48.224Z,101989.81
2018-11-22T06:48:19.635Z,101992.42
2018-11-22T06:50:50.855Z,101983.09
2018-11-22T06:53:19.269Z,101992.44
2018-11-22T06:55:51.628Z,101994.16
2018-11-22T06:58:19.266Z,101997.59
2018-11-22T07:00:47.904Z,101997.70
2018-11-22T07:03:18.659Z,101994.58
2018-11-22T07:05:50.187Z,101988.23
2018-11-22T07:08:18.779Z,101991.17
2018-11-22T07:10:50.023Z,101996.41
2018-11-22T07:13:21.760Z,101989.44
2018-11-22T07:15:53.338Z,101997.02
2018-11-22T07:18:21.769Z,101991.94
2018-11-22T07:20:53.203Z,101987.23
2018-11-22T07:23:24.226Z,101988.68
2018-11-22T07:25:52.795Z,101996.47
2018-11-22T07:28:24.145Z,101999.58
2018-11-22T07:30:55.828Z,102006.07
2018-11-22T07:33:24.276Z,102010.40
2018-11-22T07:35:52.687Z,102009.78
2018-11-22T07:38:24.296Z,102016.82
2018-11-22T07:40:55.763Z,102017.55
2018-11-22T07:43:26.968Z,102013.28
2018-11-22T07:45:55.404Z,102007.34
2018-11-22T07:48:26.688Z,102014.69
2018-11-22T07:50:59.033Z,102017.70
2018-11-22T07:53:30.341Z,102019.92
2018-11-22T07:56:02.336Z,102021.62
2018-11-22T07:58:33.894Z,102028.52
2018-11-22T08:01:05.870Z,102026.76
2018-11-22T08:03:38.209Z,102029.73
2018-11-22T08:06:09.630Z,102025.48
2018-11-22T08:08:41.164Z,102024.19
2018-11-22T08:11:09.979Z,102029.23
2018-11-22T12:17:07.967Z,102001.64
2018-11-22T12:19:36.545Z,102002.40
2018-11-22T12:22:05.185Z,102005.31
2018-11-22T12:24:34.514Z,101998.30
2018-11-22T12:27:03.102Z,102004.39
2018-11-22T12:29:31.666Z,101994.97
2018-11-22T12:32:05.504Z,101995.87
2018-11-22T12:34:39.402Z,101990.35
2018-11-22T12:37:10.435Z,101990.53
2018-11-22T12:39:39.341Z,101986.96
2018-11-22T12:42:08.910Z,101990.34
2018-11-22T12:44:37.453Z,101982.16
2018-11-22T12:47:06.147Z,101989.06
2018-11-22T12:49:34.691Z,101993.45
2018-11-22T12:52:04.237Z,101991.35
2018-11-22T12:54:33.719Z,101990.95
2018-11-22T12:57:03.208Z,101992.63
2018-11-22T12:59:31.739Z,101991.34
2018-11-22T13:02:01.332Z,101986.97
2018-11-22T13:04:30.789Z,101985.78
2018-11-22T13:07:00.350Z,101983.82
2018-11-22T13:09:29.816Z,101986.40
2018-11-22T13:11:59.285Z,101986.45
2018-11-22T13:14:28.652Z,101985.97
2018-11-22T13:16:58.006Z,101981.72
2018-11-22T13:19:26.530Z,101986.01
2018-11-22T13:21:55.089Z,101985.20
2018-11-22T13:24:23.610Z,101984.78
2018-11-22T13:26:52.178Z,101980.87
2018-11-22T13:29:20.777Z,101988.77
2018-11-22T13:31:49.348Z,101987.95
2018-11-22T13:34:18.666Z,101979.00
2018-11-22T13:36:47.838Z,101978.91
2018-11-22T13:39:17.400Z,101981.31
2018-11-22T13:41:46.246Z,101975.42
2018-11-22T13:44:16.684Z,101978.32
2018-11-22T13:46:45.970Z,101979.23
2018-11-22T13:49:14.539Z,101974.39
2018-11-22T13:51:43.116Z,101980.34
2018-11-22T13:54:11.734Z,101977.41
2018-11-22T13:56:40.358Z,101977.02
2018-11-22T13:59:09.813Z,101981.38
2018-11-22T14:01:38.421Z,101979.18
2018-11-22T14:04:07.083Z,101982.48
2018-11-22T14:06:35.690Z,101982.97
2018-11-22T14:09:06.980Z,101983.03
2018-11-22T14:11:35.558Z,101980.45
2018-11-22T14:14:04.163Z,101985.00
2018-11-22T14:16:32.765Z,101992.78
2018-11-22T14:19:01.295Z,101992.45
2018-11-22T14:21:30.938Z,101983.39
2018-11-22T14:24:00.533Z,101993.09
2018-11-22T14:26:30.161Z,101991.00
2018-11-22T14:28:59.707Z,101998.33
2018-11-22T14:31:29.283Z,101996.51
2018-11-22T14:33:58.805Z,101990.14
2018-11-22T14:36:27.356Z,101990.08
2018-11-22T14:38:55.887Z,101987.20
2018-11-22T14:41:25.507Z,101987.98
2018-11-22T14:43:55.261Z,101984.83
2018-11-22T14:46:25.017Z,101988.42
2018-11-22T14:48:54.039Z,101981.99
2018-11-22T14:51:32.308Z,101982.67
2018-11-22T14:54:01.854Z,101976.19
2018-11-22T14:56:31.536Z,101974.86
2018-11-22T14:59:00.228Z,101977.36
2018-11-22T15:01:30.075Z,101976.02
2018-11-22T15:03:59.627Z,101977.72
2018-11-22T15:06:28.207Z,101976.80
2018-11-22T15:08:57.925Z,101978.03
2018-11-22T15:11:26.824Z,101983.23
2018-11-22T15:13:56.789Z,101978.22
2018-11-22T15:16:26.294Z,101977.78
2018-11-22T15:18:55.737Z,101986.22
2018-11-22T15:21:25.001Z,101985.78
2018-11-22T15:23:54.485Z,101985.12
2018-11-22T15:26:23.802Z,101983.42
2018-11-22T15:28:53.250Z,101988.85
2018-11-22T15:31:21.797Z,101992.09
2018-11-22T15:33:50.354Z,101991.73
2018-11-22T15:36:19.038Z,101990.81
2018-11-22T15:38:48.585Z,101989.17
2018-11-22T15:41:18.148Z,101997.49
2018-11-22T15:43:47.066Z,101993.88
2018-11-22T15:46:16.722Z,101996.48
2018-11-22T15:48:46.101Z,101994.30
2018-11-22T15:51:16.982Z,101994.35
2018-11-22T15:53:47.493Z,101997.43
2018-11-22T15:56:16.474Z,101999.63
2018-11-22T15:58:46.400Z,102001.77
2018-11-22T16:01:15.117Z,102005.00
2018-11-22T16:03:43.770Z,102003.03
2018-11-22T16:06:12.492Z,102003.89
2018-11-22T16:08:40.980Z,102005.05
2018-11-22T16:11:14.781Z,102013.11
2018-11-22T16:13:38.287Z,102003.70
2018-11-22T16:16:07.250Z,102002.91
2018-11-22T16:18:36.071Z,102004.00
2018-11-22T16:21:04.577Z,102003.70
2018-11-22T16:23:34.078Z,101998.36
2018-11-22T16:26:03.480Z,102007.50
2018-11-22T16:28:32.111Z,102002.36
2018-11-22T16:31:01.612Z,102001.07
2018-11-22T16:33:31.319Z,102000.16
2018-11-22T16:36:00.679Z,101996.37
2018-11-22T16:38:29.397Z,102003.63
2018-11-22T16:40:58.902Z,102001.93
2018-11-22T16:43:27.649Z,101998.79
2018-11-22T16:45:56.359Z,101998.73
2018-11-22T16:48:26.014Z,102005.59
2018-11-22T16:50:55.832Z,102008.58
2018-11-22T16:53:25.467Z,102008.44
2018-11-22T16:55:54.931Z,102009.77
2018-11-22T16:58:23.704Z,102015.05
2018-11-22T17:00:53.136Z,102016.35
2018-11-22T17:03:21.672Z,102012.55
2018-11-22T17:05:51.541Z,102014.69
2018-11-22T17:08:21.188Z,102011.27
2018-11-22T17:10:50.923Z,102015.97
2018-11-22T17:13:20.566Z,102012.34
2018-11-22T17:15:50.051Z,102014.06
2018-11-22T17:18:19.595Z,102017.05
2018-11-22T17:20:49.457Z,102011.91
2018-11-22T17:23:20.130Z,102012.41
2018-11-22T17:25:49.571Z,102015.29
2018-11-22T17:28:19.292Z,102014.50
2018-11-22T17:30:48.630Z,102018.19
2018-11-22T17:33:17.824Z,102027.09
2018-11-22T17:35:47.446Z,102022.03
2018-11-22T17:38:16.387Z,102020.19
2018-11-22T17:40:47.437Z,102031.59
2018-11-22T17:43:17.850Z,102027.73
2018-11-22T17:45:47.923Z,102025.47
2018-11-22T17:48:18.438Z,102033.50
2018-11-22T17:50:48.283Z,102030.47
2018-11-22T17:53:17.687Z,102038.02
2018-11-22T17:55:46.886Z,102033.50
2018-11-22T17:58:16.902Z,102039.99
2018-11-22T18:00:48.522Z,102029.87
2018-11-22T18:03:18.494Z,102033.20
2018-11-22T18:05:47.853Z,102036.41
2018-11-22T18:08:17.659Z,102030.31
2018-11-22T18:10:46.404Z,102033.86
2018-11-22T18:13:15.102Z,102027.04
2018-11-22T18:15:48.917Z,102027.67
2018-11-22T18:18:18.275Z,102030.23
2018-11-22T18:20:47.528Z,102029.76
2018-11-22T18:23:16.304Z,102029.73
2018-11-22T18:25:48.856Z,102038.36
2018-11-22T18:28:16.655Z,102038.00
2018-11-22T18:30:46.519Z,102041.70
2018-11-22T18:33:16.471Z,102039.80
2018-11-22T18:35:45.969Z,102035.41
2018-11-22T18:38:15.681Z,102033.11
2018-11-22T18:40:44.912Z,102038.94
2018-11-22T18:43:15.901Z,102036.45
2018-11-22T18:45:47.017Z,102033.44
2018-11-22T18:48:16.983Z,102031.66
2018-11-22T18:50:47.019Z,102030.28
2018-11-22T18:53:15.129Z,102027.66
2018-11-22T18:55:45.008Z,102023.59
2018-11-22T18:58:14.125Z,102024.11
2018-11-22T19:00:44.299Z,102022.30
2018-11-22T19:03:16.158Z,102026.17
2018-11-22T19:05:44.952Z,102029.44
2018-11-22T19:08:13.503Z,102025.51
2018-11-22T19:10:43.018Z,102024.37
2018-11-22T19:13:13.266Z,102021.31
2018-11-22T19:15:43.242Z,102027.66
2018-11-22T19:18:13.203Z,102031.20
2018-11-22T19:20:43.560Z,102034.08
2018-11-22T19:23:12.631Z,102022.06
2018-11-22T19:25:41.318Z,102022.45
2018-11-22T19:28:10.306Z,102024.66
2018-11-22T19:30:40.431Z,102025.15
2018-11-22T19:33:10.733Z,102024.37
2018-11-22T19:35:42.045Z,102015.41
2018-11-22T19:38:10.761Z,102009.21
2018-11-22T19:40:40.014Z,102014.43
2018-11-22T19:43:09.558Z,102014.27
2018-11-22T19:45:39.874Z,102016.03
2018-11-22T19:48:08.786Z,102016.77
2018-11-22T19:50:37.417Z,102012.19
2018-11-22T19:53:07.865Z,102013.50
2018-11-22T19:55:38.465Z,102017.91
2018-11-22T19:58:09.871Z,102022.47
2018-11-22T20:00:39.282Z,102016.20
2018-11-22T20:03:09.021Z,102025.24
2018-11-22T20:05:40.520Z,102021.09
2018-11-22T20:10:33.000Z,102030.47
2018-11-22T20:13:03.423Z,102030.97
2018-11-22T20:15:34.349Z,102038.09
2018-11-22T20:18:06.188Z,102033.37
2018-11-22T20:20:36.348Z,102028.23
2018-11-22T20:23:06.431Z,102037.30
2018-11-22T20:25:35.352Z,102039.34
2018-11-22T20:28:04.090Z,102030.88
2018-11-22T20:30:37.862Z,102029.19
2018-11-22T20:33:07.389Z,102033.95
2018-11-22T20:35:36.233Z,102032.25
2018-11-22T20:38:04.816Z,102026.88
2018-11-22T20:40:33.405Z,102037.29
2018-11-22T20:43:02.174Z,102029.45
2018-11-22T20:45:31.561Z,102024.53
2018-11-22T20:48:01.814Z,102031.88
2018-11-22T20:50:30.843Z,102036.08
2018-11-22T20:53:00.322Z,102031.02
2018-11-22T20:55:30.361Z,102031.59
2018-11-22T20:58:00.324Z,102029.87
2018-11-22T21:00:30.778Z,102026.05
2018-11-22T21:02:59.312Z,102033.74
2018-11-22T21:05:28.617Z,102028.66
2018-11-22T21:07:57.207Z,102032.38
2018-11-22T21:10:27.968Z,102027.04
2018-11-22T21:12:56.560Z,102033.19
2018-11-22T21:15:27.269Z,102031.11
2018-11-22T21:18:01.461Z,102027.27
2018-11-22T21:20:34.455Z,102032.05
2018-11-22T21:23:04.024Z,102032.16
2018-11-22T21:25:32.588Z,102022.25
2018-11-22T21:28:01.134Z,102017.49
2018-11-22T21:30:32.154Z,102020.77
2018-11-22T21:33:01.347Z,102019.95
2018-11-22T21:35:30.350Z,102020.27
2018-11-22T21:37:59.775Z,102017.34
2018-11-22T21:40:30.024Z,102023.81
2018-11-22T21:42:59.728Z,102019.89
2018-11-22T21:45:28.883Z,102015.56
2018-11-22T21:47:57.689Z,102013.41
2018-11-22T21:50:27.266Z,102013.06
2018-11-22T21:52:55.843Z,102017.68
2018-11-22T21:55:25.654Z,102021.17
2018-11-22T21:57:55.564Z,102013.27
2018-11-22T22:00:28.892Z,102015.54
2018-11-22T22:02:59.934Z,102012.06
2018-11-22T22:05:28.549Z,102015.77
2018-11-22T22:07:58.025Z,102014.91
2018-11-22T22:10:27.546Z,102017.98
2018-11-22T22:12:56.129Z,102023.16
2018-11-22T22:15:26.267Z,102018.55
2018-11-22T22:17:55.697Z,102020.25
2018-11-22T22:20:25.811Z,102024.97
2018-11-22T22:22:54.357Z,102022.75
2018-11-22T22:25:23.934Z,102019.34
2018-11-22T22:27:53.581Z,102020.27
2018-11-22T22:30:25.217Z,102015.91
2018-11-22T22:32:56.208Z,102013.48
2018-11-22T22:35:24.755Z,102013.31
2018-11-22T22:37:53.300Z,102014.28
2018-11-22T22:40:24.075Z,102013.14
2018-11-22T22:42:53.764Z,102014.69
2018-11-22T22:45:24.467Z,102012.98
2018-11-22T22:47:53.736Z,102010.07
2018-11-22T22:50:23.435Z,102017.31
2018-11-22T22:52:53.684Z,102017.61
2018-11-22T22:55:22.349Z,102019.77
2018-11-22T22:57:50.962Z,102011.20
2018-11-22T23:00:25.993Z,102017.77
2018-11-22T23:02:57.877Z,102017.03
2018-11-22T23:05:27.876Z,102013.97
2018-11-22T23:07:56.795Z,102007.97
2018-11-22T23:10:26.071Z,102008.77
2018-11-22T23:12:55.306Z,102016.39
2018-11-22T23:15:24.415Z,102017.21
2018-11-22T23:17:53.969Z,102019.96
2018-11-22T23:20:24.854Z,102009.13
2018-11-22T23:22:53.996Z,102012.97
2018-11-22T23:25:23.346Z,102018.62
2018-11-22T23:27:52.032Z,102018.25
2018-11-22T23:30:23.760Z,102014.41
2018-11-22T23:32:56.455Z,102014.63
2018-11-22T23:35:24.303Z,102014.72
2018-11-22T23:37:54.104Z,102017.19
2018-11-22T23:40:23.919Z,102008.95
2018-11-22T23:42:53.722Z,102004.43
2018-11-22T23:45:24.698Z,102010.14
2018-11-22T23:47:54.127Z,102015.18
2018-11-22T23:50:24.932Z,102016.27
2018-11-22T23:52:55.797Z,102016.00
2018-11-22T23:55:25.312Z,102015.97
2018-11-22T23:57:54.773Z,102017.64
